Flinterduin — PEBT — position and weather

sailwx.info

Track history (hours):
 
Tides and Currents Weather Stations Pressure Air Temp Water Temp Dewpoint Dewpoint Depression Visibility Wind Speed Wind Dir Waves Ship Positions

Flinterduin

Last reported at 2016-May-30 02:33 UTC. Time now 2016-May-30 03:03 UTC.
Position N 50°55' E 001°28'.

Length 112 m; beam 15 m.

Type: Cargo ship. MMSI: 246484000.

Date/timePositionNaut miles runAvg speedWind from/ knotsBaromVisibWave heightAir tempDewpointWater temp
2016-May-30 02:33N 50°55' E 001°28'47 9.3
2016-May-29 21:32N 50°26' E 000°30'10 9.9
2016-May-29 20:33N 50°24' E 000°15'10 9.9
2016-May-29 19:33N 50°20' E 000°00'1010.0
2016-May-29 18:33N 50°18' W 000°15'1110.1
2016-May-29 17:30N 50°15' W 000°31'5012.2
2016-May-29 13:24N 49°60' W 001°46'3713.1
2016-May-29 10:33N 49°50' W 002°42'1211.7
2016-May-29 09:33N 49°47' W 002°59'1110.9
2016-May-29 08:33N 49°41' W 003°14'1110.7
2016-May-29 07:33N 49°36' W 003°28'7210.3
2016-May-29 00:33N 48°60' W 005°04'1110.7
2016-May-28 23:31N 48°54' W 005°18'1111.2
2016-May-28 22:33N 48°48' W 005°32'1111.4
2016-May-28 21:33N 48°39' W 005°43'1211.7
2016-May-28 20:33N 48°29' W 005°51'1211.9
2016-May-28 19:33N 48°18' W 005°59'1211.9
2016-May-28 18:33N 48°08' W 006°08'56311.2
2016-May-26 16:27N 39°09' W 009°50'1011.5
2016-May-26 15:33N 38°58' W 009°51'1211.5
2016-May-26 14:33N 38°47' W 009°51'1111.0
2016-May-26 13:33N 38°36' W 009°49'2711.0
2016-May-26 11:04N 38°09' W 009°41'510.8
2016-May-26 10:33N 38°04' W 009°40'1310.4
2016-May-26 09:19N 37°51' W 009°36'910.4
2016-May-26 08:26N 37°42' W 009°33'219 9.6
2016-May-25 09:33N 35°59' W 005°32'9 8.6
2016-May-25 08:33N 36°01' W 005°22'27210.7
2016-May-24 07:15N 36°46' E 000°11'811.2
2016-May-24 06:33N 36°48' E 000°21'1211.3
2016-May-24 05:32N 36°50' E 000°35'1111.5
2016-May-24 04:33N 36°52' E 000°49'1211.4
2016-May-24 03:33N 36°54' E 001°03'1111.5
2016-May-24 02:33N 36°57' E 001°17'3210.7
2016-May-23 23:33N 37°01' E 001°57'30611.2
2016-May-22 20:16N 37°34' E 008°19'3111.5
2016-May-22 17:33N 37°37' E 008°58'1212.0
2016-May-22 16:33N 37°38' E 009°13'1212.2
2016-May-22 15:32N 37°38' E 009°29'1211.6
2016-May-22 14:32N 37°38' E 009°43'13010.8
2016-May-22 02:29N 37°09' E 012°23'1410.9
2016-May-22 01:15N 37°05' E 012°39'1910.9
2016-May-21 23:31N 37°00' E 013°02'1010.6
2016-May-21 22:33N 36°57' E 013°14'1110.9
2016-May-21 21:33N 36°55' E 013°27'1110.9
2016-May-21 20:33N 36°52' E 013°40'1110.7
2016-May-21 19:33N 36°49' E 013°53'1110.5
2016-May-21 18:33N 36°46' E 014°06'1010.5
2016-May-21 17:33N 36°43' E 014°18'1010.1
2016-May-21 16:33N 36°40' E 014°30'1110.6
2016-May-21 15:33N 36°37' E 014°43'1010.1
2016-May-21 14:33N 36°34' E 014°55'1010.2
2016-May-21 13:33N 36°32' E 015°08'1110.5
2016-May-21 12:32N 36°32' E 015°21'  
Track history (hours):
 
Tides and Currents Weather Stations Pressure Air Temp Water Temp Dewpoint Dewpoint Depression Visibility Wind Speed Wind Dir Waves Ship Positions

Flinterduin

Last reported at 2016-May-30 02:33 UTC. Time now 2016-May-30 03:03 UTC.
Position N 50°55' E 001°28'.

Length 112 m; beam 15 m.

Type: Cargo ship. MMSI: 246484000.

Date/timePositionNaut miles runAvg speedWind from/ knotsBaromVisibWave heightAir tempDewpointWater temp
2016-May-30 02:33N 50°55' E 001°28'47 9.3
2016-May-29 21:32N 50°26' E 000°30'10 9.9
2016-May-29 20:33N 50°24' E 000°15'10 9.9
2016-May-29 19:33N 50°20' E 000°00'1010.0
2016-May-29 18:33N 50°18' W 000°15'1110.1
2016-May-29 17:30N 50°15' W 000°31'5012.2
2016-May-29 13:24N 49°60' W 001°46'3713.1
2016-May-29 10:33N 49°50' W 002°42'1211.7
2016-May-29 09:33N 49°47' W 002°59'1110.9
2016-May-29 08:33N 49°41' W 003°14'1110.7
2016-May-29 07:33N 49°36' W 003°28'7210.3
2016-May-29 00:33N 48°60' W 005°04'1110.7
2016-May-28 23:31N 48°54' W 005°18'1111.2
2016-May-28 22:33N 48°48' W 005°32'1111.4
2016-May-28 21:33N 48°39' W 005°43'1211.7
2016-May-28 20:33N 48°29' W 005°51'1211.9
2016-May-28 19:33N 48°18' W 005°59'1211.9
2016-May-28 18:33N 48°08' W 006°08'56311.2
2016-May-26 16:27N 39°09' W 009°50'1011.5
2016-May-26 15:33N 38°58' W 009°51'1211.5
2016-May-26 14:33N 38°47' W 009°51'1111.0
2016-May-26 13:33N 38°36' W 009°49'2711.0
2016-May-26 11:04N 38°09' W 009°41'510.8
2016-May-26 10:33N 38°04' W 009°40'1310.4
2016-May-26 09:19N 37°51' W 009°36'910.4
2016-May-26 08:26N 37°42' W 009°33'219 9.6
2016-May-25 09:33N 35°59' W 005°32'9 8.6
2016-May-25 08:33N 36°01' W 005°22'27210.7
2016-May-24 07:15N 36°46' E 000°11'811.2
2016-May-24 06:33N 36°48' E 000°21'1211.3
2016-May-24 05:32N 36°50' E 000°35'1111.5
2016-May-24 04:33N 36°52' E 000°49'1211.4
2016-May-24 03:33N 36°54' E 001°03'1111.5
2016-May-24 02:33N 36°57' E 001°17'3210.7
2016-May-23 23:33N 37°01' E 001°57'30611.2
2016-May-22 20:16N 37°34' E 008°19'3111.5
2016-May-22 17:33N 37°37' E 008°58'1212.0
2016-May-22 16:33N 37°38' E 009°13'1212.2
2016-May-22 15:32N 37°38' E 009°29'1211.6
2016-May-22 14:32N 37°38' E 009°43'13010.8
2016-May-22 02:29N 37°09' E 012°23'1410.9
2016-May-22 01:15N 37°05' E 012°39'1910.9
2016-May-21 23:31N 37°00' E 013°02'1010.6
2016-May-21 22:33N 36°57' E 013°14'1110.9
2016-May-21 21:33N 36°55' E 013°27'1110.9
2016-May-21 20:33N 36°52' E 013°40'1110.7
2016-May-21 19:33N 36°49' E 013°53'1110.5
2016-May-21 18:33N 36°46' E 014°06'1010.5
2016-May-21 17:33N 36°43' E 014°18'1010.1
2016-May-21 16:33N 36°40' E 014°30'1110.6
2016-May-21 15:33N 36°37' E 014°43'1010.1
2016-May-21 14:33N 36°34' E 014°55'1010.2
2016-May-21 13:33N 36°32' E 015°08'1110.5
2016-May-21 12:32N 36°32' E 015°21'  

Dump ship's entire track history